Time;durP1;ratioP1;P1;durP2;ratioP2;P2;SDS_P1;SDS_P2;PMS_P1;PMS_P2;Temp;Humidity;BMP_temperature;BMP_pressure;BME280_temperature;BME280_humidity;BME280_pressure;Samples;Min_cycle;Max_cycle;Signal;HPM_P1;HPM_P2
2024/04/08 00:01:45;;;;;;;10.27;2.20;;;;;;;13.44;73.71;101130.56;4974466;28;20692;-66
2024/04/08 00:04:11;;;;;;;13.65;3.22;;;;;;;13.44;73.97;101127.88;4974439;28;20399;-66
2024/04/08 00:06:36;;;;;;;8.23;2.42;;;;;;;13.33;74.88;101123.03;4973861;28;20182;-66
2024/04/08 00:09:02;;;;;;;7.60;2.58;;;;;;;13.28;75.02;101114.31;4973710;28;20182;-66
2024/04/08 00:11:27;;;;;;;8.30;2.67;;;;;;;13.39;75.14;101124.56;4973815;28;20198;-66
2024/04/08 00:13:53;;;;;;;8.43;1.95;;;;;;;13.23;75.80;101121.75;4974117;28;20197;-66
2024/04/08 00:16:18;;;;;;;7.82;2.83;;;;;;;13.20;75.46;101101.25;4973829;28;20182;-66
2024/04/08 00:18:43;;;;;;;11.30;2.47;;;;;;;13.21;75.49;101118.25;4973910;28;20182;-66
2024/04/08 00:21:09;;;;;;;12.75;2.08;;;;;;;13.02;76.43;101113.78;4972563;28;20190;-66
2024/04/08 00:23:34;;;;;;;8.02;2.00;;;;;;;13.09;76.02;101114.34;4973966;28;20190;-66
2024/04/08 00:26:04;;;;;;;13.95;2.25;;;;;;;13.07;76.01;101107.31;4973740;28;20189;-66
2024/04/08 00:28:29;;;;;;;10.80;2.33;;;;;;;13.00;76.22;101095.97;4973928;28;20194;-66
2024/04/08 00:31:06;;;;;;;11.38;1.75;;;;;;;13.16;76.08;101105.03;4973770;28;20187;-66
2024/04/08 00:33:31;;;;;;;10.48;2.30;;;;;;;13.18;75.37;101103.16;4975447;28;20708;-66
2024/04/08 00:35:57;;;;;;;7.57;2.28;;;;;;;13.21;75.33;101102.09;4977299;28;20383;-66
2024/04/08 00:38:23;;;;;;;7.97;1.98;;;;;;;13.13;75.61;101105.16;4977577;28;20210;-66
2024/04/08 00:40:48;;;;;;;6.57;1.95;;;;;;;13.33;74.76;101106.91;4977158;28;20206;-66
2024/04/08 00:43:13;;;;;;;9.15;2.03;;;;;;;13.31;74.67;101098.00;4977866;28;20193;-66
2024/04/08 00:45:41;;;;;;;10.68;2.33;;;;;;;13.32;75.07;101097.06;4977586;28;20281;-66
2024/04/08 00:48:08;;;;;;;11.63;1.98;;;;;;;13.38;75.23;101107.56;4977558;28;20209;-66
2024/04/08 00:50:34;;;;;;;7.47;2.20;;;;;;;13.30;75.54;101108.84;4977386;28;20198;-66
2024/04/08 00:53:00;;;;;;;12.30;2.60;;;;;;;12.92;77.28;101106.22;4976883;28;20559;-66
2024/04/08 00:55:27;;;;;;;13.20;3.28;;;;;;;13.11;77.29;101108.88;4978070;28;20202;-66
2024/04/08 00:57:55;;;;;;;10.07;2.58;;;;;;;13.04;78.04;101105.63;4977983;28;20650;-66
2024/04/08 01:00:20;;;;;;;10.50;2.38;;;;;;;12.95;78.44;101101.56;4992346;28;20229;-66
2024/04/08 01:02:46;;;;;;;8.73;2.35;;;;;;;12.97;78.45;101101.50;4996773;28;20259;-66
2024/04/08 01:05:13;;;;;;;7.97;2.00;;;;;;;13.12;78.13;101110.63;4995694;28;20189;-66
2024/04/08 01:07:43;;;;;;;11.82;3.08;;;;;;;13.17;78.04;101112.16;4997133;28;20186;-66
2024/04/08 01:10:10;;;;;;;9.93;2.58;;;;;;;13.40;77.26;101110.16;4995622;28;20186;-66
2024/04/08 01:12:35;;;;;;;8.05;2.20;;;;;;;13.30;77.51;101112.41;4996760;28;20273;-66
2024/04/08 01:15:01;;;;;;;14.27;2.83;;;;;;;13.17;77.91;101100.53;4996048;28;20620;-66
2024/04/08 01:17:27;;;;;;;13.35;2.50;;;;;;;13.29;77.61;101099.03;4995428;28;20189;-66
2024/04/08 01:19:52;;;;;;;11.15;2.38;;;;;;;13.20;78.18;101101.25;4996320;28;20576;-66
2024/04/08 01:22:17;;;;;;;9.40;2.35;;;;;;;13.38;77.42;101107.56;4996508;28;20189;-66
2024/04/08 01:24:43;;;;;;;12.70;2.45;;;;;;;13.20;78.08;101097.69;4996578;28;20585;-66
2024/04/08 01:27:08;;;;;;;14.23;2.47;;;;;;;12.90;79.98;101097.38;4996594;28;20276;-66
2024/04/08 01:29:35;;;;;;;11.63;2.20;;;;;;;13.07;79.62;101102.78;4996180;28;20193;-66
2024/04/08 01:32:01;;;;;;;9.73;2.55;;;;;;;13.20;78.76;101111.13;4996500;28;20182;-66
2024/04/08 01:34:26;;;;;;;10.07;2.45;;;;;;;13.11;78.94;101104.38;4996315;28;20683;-66
2024/04/08 01:36:52;;;;;;;12.02;2.67;;;;;;;13.15;78.94;101092.50;4996410;28;20245;-66
2024/04/08 01:39:17;;;;;;;13.95;3.05;;;;;;;13.16;78.79;101102.34;4995818;28;20197;-66
2024/04/08 01:41:42;;;;;;;12.48;2.63;;;;;;;13.22;78.81;101095.78;4996124;28;20225;-66
2024/04/08 01:44:08;;;;;;;10.57;2.55;;;;;;;12.95;79.01;101066.59;4995131;28;20642;-66
2024/04/08 01:46:33;;;;;;;9.60;2.42;;;;;;;13.09;78.85;101084.75;4996017;28;20209;-66
2024/04/08 01:48:58;;;;;;;8.07;2.42;;;;;;;12.99;78.72;101080.78;4995827;28;20208;-66
2024/04/08 01:51:24;;;;;;;6.50;2.15;;;;;;;13.06;78.28;101087.59;4995833;28;20229;-66
2024/04/08 01:53:49;;;;;;;7.07;2.60;;;;;;;13.06;77.89;101087.59;4995601;28;20225;-66
2024/04/08 01:56:14;;;;;;;8.32;2.65;;;;;;;13.09;77.62;101087.44;4995883;28;20667;-66
2024/04/08 01:58:40;;;;;;;11.23;2.92;;;;;;;12.99;77.59;101080.78;4995226;28;20251;-66
2024/04/08 02:01:05;;;;;;;13.82;2.53;;;;;;;13.13;77.66;101083.66;4995734;28;20228;-66
2024/04/08 02:03:30;;;;;;;8.73;2.33;;;;;;;12.95;77.80;101079.19;4995752;28;20182;-67
2024/04/08 02:05:56;;;;;;;9.43;2.42;;;;;;;12.82;78.28;101074.41;4995621;28;20182;-65
2024/04/08 02:08:21;;;;;;;5.38;2.35;;;;;;;12.82;78.34;101070.88;4995221;28;20198;-65
2024/04/08 02:10:49;;;;;;;15.68;3.00;;;;;;;12.82;78.48;101070.88;4995650;28;20644;-65
2024/04/08 02:13:14;;;;;;;11.70;2.70;;;;;;;12.80;78.82;101064.66;4995780;28;20264;-65
2024/04/08 02:15:39;;;;;;;11.73;2.90;;;;;;;12.76;78.63;101063.09;4995502;28;20264;-65
2024/04/08 02:18:06;;;;;;;11.13;3.13;;;;;;;12.70;79.58;101072.31;4995242;28;20196;-65
2024/04/08 02:20:36;;;;;;;11.93;3.10;;;;;;;12.71;79.69;101073.19;4995624;28;20328;-65
2024/04/08 02:23:02;;;;;;;12.35;3.00;;;;;;;12.75;80.53;101066.72;4994458;28;20197;-65
2024/04/08 02:25:27;;;;;;;8.07;2.60;;;;;;;12.57;81.29;101071.16;4995434;28;20192;-65
2024/04/08 02:27:52;;;;;;;9.18;3.28;;;;;;;12.58;82.44;101063.03;4979455;28;20201;-66
2024/04/08 02:30:18;;;;;;;12.90;2.63;;;;;;;12.51;82.89;101053.53;4998246;28;20190;-66
2024/04/08 02:32:43;;;;;;;11.85;2.97;;;;;;;12.47;84.09;101062.69;4994808;28;20189;-65
2024/04/08 02:35:08;;;;;;;13.23;3.25;;;;;;;12.52;84.46;101070.53;4995149;28;20220;-65
2024/04/08 02:37:34;;;;;;;9.82;3.40;;;;;;;12.42;85.03;101062.91;4994843;28;20244;-67
2024/04/08 02:39:59;;;;;;;12.38;4.43;;;;;;;12.37;85.03;101064.03;4995106;28;20205;-65
2024/04/08 02:42:24;;;;;;;5.82;2.25;;;;;;;12.35;85.05;101066.81;4994595;28;20252;-65
2024/04/08 02:44:50;;;;;;;9.98;2.50;;;;;;;12.30;85.28;101060.78;4994938;28;20188;-67
2024/04/08 02:47:15;;;;;;;9.60;2.63;;;;;;;12.15;85.69;101061.50;4994670;28;20554;-67
2024/04/08 02:49:40;;;;;;;7.57;3.03;;;;;;;12.36;85.12;101062.28;4994897;28;20613;-66
2024/04/08 02:52:06;;;;;;;14.30;2.90;;;;;;;12.18;85.74;101058.69;4994652;28;20183;-66
2024/04/08 02:54:31;;;;;;;6.97;3.00;;;;;;;12.23;85.22;101056.63;4994816;28;20245;-66
2024/04/08 02:56:57;;;;;;;16.80;3.05;;;;;;;12.12;85.50;101062.50;4993939;28;20593;-66
2024/04/08 02:59:23;;;;;;;8.95;3.30;;;;;;;12.03;86.53;101062.94;4993302;28;20243;-67
2024/04/08 03:01:48;;;;;;;7.82;2.88;;;;;;;12.00;86.61;101052.31;4994651;28;20185;-66
2024/04/08 03:04:14;;;;;;;8.23;2.78;;;;;;;12.05;86.42;101047.59;4994709;28;20197;-66
2024/04/08 03:06:39;;;;;;;13.90;2.42;;;;;;;12.13;85.99;101062.44;4994539;28;20197;-66
2024/04/08 03:09:05;;;;;;;9.40;3.42;;;;;;;12.12;86.01;101052.63;4993387;28;20257;-66
2024/04/08 03:11:31;;;;;;;6.70;3.30;;;;;;;12.02;85.97;101043.28;4994142;28;20663;-65
2024/04/08 03:13:56;;;;;;;6.93;2.83;;;;;;;11.98;86.46;101055.09;4994334;28;20237;-65
2024/04/08 03:16:21;;;;;;;9.05;2.50;;;;;;;12.08;86.17;101055.53;4994044;28;20656;-66
2024/04/08 03:18:47;;;;;;;12.48;3.30;;;;;;;12.06;85.85;101052.91;4994343;28;20276;-66
2024/04/08 03:21:12;;;;;;;8.80;2.78;;;;;;;12.07;85.71;101051.97;4994377;28;20719;-65
2024/04/08 03:23:37;;;;;;;13.30;3.65;;;;;;;12.08;85.86;101053.72;4994353;28;20623;-65
2024/04/08 03:26:05;;;;;;;9.80;2.80;;;;;;;12.00;85.92;101052.31;4994158;28;20205;-65
2024/04/08 03:28:30;;;;;;;8.63;2.50;;;;;;;11.99;86.09;101051.47;4994274;28;20213;-65
2024/04/08 03:30:57;;;;;;;10.75;2.85;;;;;;;11.90;86.96;101051.84;4993092;28;20185;-65
2024/04/08 03:33:23;;;;;;;8.00;2.70;;;;;;;11.91;86.98;101037.47;4994765;28;20192;-65
2024/04/08 03:35:49;;;;;;;9.65;2.00;;;;;;;11.90;86.65;101038.44;4992864;28;20190;-65
2024/04/08 03:38:15;;;;;;;8.85;2.50;;;;;;;11.98;86.57;101054.22;4994364;28;20209;-65
2024/04/08 03:40:41;;;;;;;7.57;2.15;;;;;;;11.97;86.21;101053.31;4994389;28;20213;-65
2024/04/08 03:43:06;;;;;;;9.02;2.55;;;;;;;11.94;86.12;101049.00;4995087;28;20189;-65
2024/04/08 03:45:32;;;;;;;11.85;2.60;;;;;;;11.96;85.95;101043.56;4994679;28;20236;-66
2024/04/08 03:47:58;;;;;;;7.50;2.30;;;;;;;11.91;86.11;101048.22;4995559;28;20190;-66
2024/04/08 03:50:30;;;;;;;8.85;2.45;;;;;;;11.85;86.38;101033.28;4995599;28;20233;-65
2024/04/08 03:52:56;;;;;;;8.30;2.30;;;;;;;11.87;86.27;101046.63;4996044;28;20279;-65
2024/04/08 03:55:26;;;;;;;9.55;2.80;;;;;;;11.83;86.38;101047.69;4996727;28;20270;-65
2024/04/08 03:57:51;;;;;;;5.68;2.38;;;;;;;11.78;86.40;101042.53;4998292;28;20194;-66
2024/04/08 04:00:17;;;;;;;10.52;2.35;;;;;;;11.77;87.01;101041.63;5000434;28;20288;-67
2024/04/08 04:02:42;;;;;;;11.00;3.03;;;;;;;11.69;87.10;101034.91;4998662;28;20236;-65
2024/04/08 04:05:08;;;;;;;11.02;3.95;;;;;;;11.74;87.78;101027.50;4978866;28;20193;-67
2024/04/08 04:07:33;;;;;;;13.55;3.03;;;;;;;11.64;88.32;101021.69;4996933;28;20568;-66
2024/04/08 04:10:04;;;;;;;8.63;3.45;;;;;;;11.66;89.02;101017.09;4999648;28;20297;-66
2024/04/08 04:12:33;;;;;;;8.35;2.60;;;;;;;11.68;88.98;101009.84;4995176;28;20189;-67
2024/04/08 04:14:59;;;;;;;8.63;2.72;;;;;;;11.61;89.65;101011.09;4994563;28;20288;-66
2024/04/08 04:17:24;;;;;;;11.80;4.05;;;;;;;11.63;89.53;101006.50;4995606;28;20211;-66
2024/04/08 04:19:50;;;;;;;12.75;3.20;;;;;;;11.70;89.28;101013.34;4994232;28;20217;-66
2024/04/08 04:22:15;;;;;;;10.45;3.20;;;;;;;11.74;89.00;101028.34;4993448;28;20193;-66
2024/04/08 04:24:41;;;;;;;8.35;2.40;;;;;;;11.69;88.84;101022.34;4993435;28;20205;-66
2024/04/08 04:27:06;;;;;;;9.93;2.95;;;;;;;11.76;88.84;101028.28;4992500;28;20526;-66
2024/04/08 04:29:31;;;;;;;13.07;3.85;;;;;;;11.72;89.23;101030.25;4993243;28;20201;-66
2024/04/08 04:31:57;;;;;;;14.27;2.90;;;;;;;11.68;89.34;101020.59;4993452;28;20182;-66
2024/04/08 04:34:22;;;;;;;8.45;3.05;;;;;;;11.65;89.35;101025.22;4993708;28;20313;-66
2024/04/08 04:36:47;;;;;;;12.23;3.15;;;;;;;11.45;90.13;101010.88;4993350;28;20225;-66
2024/04/08 04:39:13;;;;;;;6.15;3.20;;;;;;;11.42;90.63;101006.53;4975488;28;20688;-66
2024/04/08 04:41:38;;;;;;;10.45;3.10;;;;;;;11.50;90.22;100999.94;4993236;28;20527;-66
2024/04/08 04:44:04;;;;;;;9.80;2.60;;;;;;;11.54;89.93;101014.97;4993217;28;20217;-66
2024/04/08 04:46:29;;;;;;;4.82;2.35;;;;;;;11.54;89.68;101018.50;4993033;28;20182;-66
2024/04/08 04:48:54;;;;;;;7.13;2.75;;;;;;;11.54;89.44;101028.38;4993374;28;20245;-66
2024/04/08 04:51:20;;;;;;;8.77;2.83;;;;;;;11.39;89.56;101005.78;4993340;28;20498;-66
2024/04/08 04:53:45;;;;;;;7.45;2.22;;;;;;;11.50;89.47;101035.72;4975605;28;20349;-66
2024/04/08 04:56:10;;;;;;;8.40;2.42;;;;;;;11.45;89.68;101036.84;4993120;28;20178;-66
2024/04/08 04:58:36;;;;;;;6.70;2.45;;;;;;;11.45;89.86;101037.69;4992958;28;20669;-67
2024/04/08 05:01:01;;;;;;;7.95;3.58;;;;;;;11.46;90.17;101050.19;4993069;28;20205;-66
2024/04/08 05:03:27;;;;;;;4.80;2.53;;;;;;;11.50;90.55;101050.91;4975825;28;20212;-66
2024/04/08 05:05:56;;;;;;;9.93;2.40;;;;;;;11.50;91.12;101048.22;4992794;28;20178;-66
2024/04/08 05:08:22;;;;;;;10.68;2.53;;;;;;;11.62;91.30;101063.78;4992795;28;20193;-66
2024/04/08 05:10:48;;;;;;;8.65;2.80;;;;;;;11.65;91.65;101078.91;4993563;28;20252;-65
2024/04/08 05:13:16;;;;;;;13.85;4.32;;;;;;;11.65;91.78;101093.16;4992772;28;20201;-65
2024/04/08 05:15:42;;;;;;;10.82;3.38;;;;;;;11.58;93.02;101095.25;4991703;28;20268;-65
2024/04/08 05:18:08;;;;;;;7.75;2.50;;;;;;;11.69;92.81;101085.88;4992538;28;20321;-65
2024/04/08 05:20:34;;;;;;;11.45;3.50;;;;;;;11.65;93.14;101090.50;4995883;28;20202;-65
2024/04/08 05:23:00;;;;;;;9.43;3.13;;;;;;;11.75;93.32;101091.84;4996247;28;20193;-65
2024/04/08 05:25:25;;;;;;;10.93;3.17;;;;;;;11.81;92.86;101074.59;4996764;28;20185;-65
2024/04/08 05:27:50;;;;;;;11.48;3.20;;;;;;;11.79;92.81;101065.72;4997648;28;20209;-66
2024/04/08 05:30:16;;;;;;;11.00;2.90;;;;;;;11.86;92.89;101067.19;4998026;28;20679;-65
2024/04/08 05:32:42;;;;;;;10.35;3.10;;;;;;;11.94;92.84;101072.25;4996242;28;20221;-66
2024/04/08 05:35:08;;;;;;;10.68;3.20;;;;;;;11.98;92.74;101071.19;4996374;28;20244;-65
2024/04/08 05:37:33;;;;;;;17.35;3.38;;;;;;;12.05;92.84;101079.81;4995980;28;20210;-65
2024/04/08 05:39:59;;;;;;;12.07;4.03;;;;;;;12.20;93.01;101091.69;4996382;28;20352;-65
2024/04/08 05:42:24;;;;;;;9.38;3.47;;;;;;;12.23;93.32;101075.44;4996246;28;20182;-65
2024/04/08 05:44:49;;;;;;;21.60;4.05;;;;;;;12.28;93.92;101085.03;4994786;28;20282;-65
2024/04/08 05:47:15;;;;;;;14.85;4.05;;;;;;;12.43;94.57;101090.63;4996004;28;20181;-65
2024/04/08 05:49:40;;;;;;;14.27;3.92;;;;;;;12.41;95.25;101084.47;4996015;28;20293;-66
2024/04/08 05:52:05;;;;;;;8.40;3.97;;;;;;;12.42;95.52;101076.34;4995968;28;20185;-67
2024/04/08 05:54:31;;;;;;;12.48;3.30;;;;;;;12.47;96.72;101089.53;4996225;28;20192;-67
2024/04/08 05:56:56;;;;;;;8.82;4.30;;;;;;;12.50;97.07;101084.03;4996010;28;20556;-66
2024/04/08 05:59:21;;;;;;;9.88;4.22;;;;;;;12.65;96.90;101085.13;4995600;28;20226;-65
2024/04/08 06:03:03;;;;;;;22.50;5.35;;;;;;;12.93;96.33;101107.97;5550881;25;20568;-58
2024/04/08 06:05:28;;;;;;;16.50;6.35;;;;;;;12.72;98.45;101091.06;5541327;25;20276;-58
2024/04/08 06:07:54;;;;;;;13.32;6.80;;;;;;;12.89;98.93;101079.50;5514176;26;20559;-57
2024/04/08 06:10:21;;;;;;;16.48;5.90;;;;;;;12.78;99.80;101077.31;5520832;25;20225;-57
2024/04/08 06:12:46;;;;;;;12.52;6.38;;;;;;;12.93;99.99;101084.66;5493757;26;20238;-57
2024/04/08 06:15:12;;;;;;;14.82;6.18;;;;;;;13.11;99.76;101085.56;5488097;25;20298;-57
2024/04/08 06:17:38;;;;;;;19.05;6.72;;;;;;;13.39;98.96;101086.88;5526118;25;20258;-57
2024/04/08 06:20:03;;;;;;;16.73;6.80;;;;;;;13.40;99.67;101090.44;5511405;25;20350;-58
2024/04/08 06:22:29;;;;;;;12.95;6.75;;;;;;;13.48;99.74;101083.72;5510873;26;20260;-57
2024/04/08 06:24:54;;;;;;;12.70;7.47;;;;;;;13.70;98.93;101082.63;5480098;26;20267;-57
2024/04/08 06:27:20;;;;;;;20.38;7.35;;;;;;;13.68;98.63;101063.00;5512045;25;20222;-57
2024/04/08 06:29:45;;;;;;;21.90;7.60;;;;;;;13.77;98.11;101073.28;5513307;25;20703;-57
2024/04/08 06:32:11;;;;;;;14.30;6.75;;;;;;;13.91;97.78;101077.91;5511273;26;20269;-57
2024/04/08 06:34:36;;;;;;;16.25;8.32;;;;;;;13.88;98.32;101081.63;5512135;25;20239;-57
2024/04/08 06:37:01;;;;;;;21.75;8.75;;;;;;;13.98;98.29;101078.47;5512874;25;20242;-58
2024/04/08 06:39:27;;;;;;;15.13;8.02;;;;;;;14.00;98.49;101084.66;5512249;25;20269;-57
2024/04/08 06:41:53;;;;;;;20.13;8.50;;;;;;;14.08;99.93;101085.09;5512754;25;20264;-57
2024/04/08 06:44:18;;;;;;;20.55;8.68;;;;;;;14.21;100.00;101096.97;5473908;26;20227;-58
2024/04/08 06:46:44;;;;;;;18.33;9.27;;;;;;;14.30;100.00;101100.97;5496213;25;20234;-58
2024/04/08 06:49:09;;;;;;;23.45;10.35;;;;;;;14.46;100.00;101103.69;5519765;25;20228;-56
2024/04/08 06:51:35;;;;;;;20.63;10.23;;;;;;;14.56;100.00;101095.97;5546433;25;20322;-57
2024/04/08 06:54:00;;;;;;;24.25;11.20;;;;;;;14.59;100.00;101099.38;5516996;25;20307;-57
2024/04/08 06:56:26;;;;;;;22.45;11.00;;;;;;;14.65;100.00;101102.72;5514730;25;20777;-58
2024/04/08 06:58:51;;;;;;;16.27;9.52;;;;;;;14.72;100.00;101093.31;5489953;25;20608;-59
2024/04/08 07:01:17;;;;;;;21.80;10.25;;;;;;;15.00;100.00;101100.69;5515496;25;20712;-58
2024/04/08 07:03:42;;;;;;;13.88;9.93;;;;;;;15.12;100.00;101085.63;5520230;25;20223;-59
2024/04/08 07:06:08;;;;;;;13.38;9.50;;;;;;;15.05;100.00;101082.41;5515726;25;20281;-58
2024/04/08 07:08:34;;;;;;;18.02;10.57;;;;;;;15.15;100.00;101085.47;5515000;25;20723;-58
2024/04/08 07:11:00;;;;;;;16.25;10.38;;;;;;;15.33;100.00;101081.69;5511430;25;20222;-58
2024/04/08 07:13:25;;;;;;;16.17;9.02;;;;;;;15.70;100.00;101089.41;5518617;25;20281;-58
2024/04/08 07:15:57;;;;;;;13.27;9.30;;;;;;;15.96;97.88;101086.97;5527826;26;20572;-58
2024/04/08 07:18:25;;;;;;;18.88;10.15;;;;;;;16.38;93.95;101088.81;5529108;25;20582;-58
2024/04/08 07:20:51;;;;;;;17.33;9.85;;;;;;;16.65;92.37;101081.75;5529638;25;20731;-56
2024/04/08 07:23:16;;;;;;;14.63;9.05;;;;;;;16.75;90.97;101069.34;5518016;26;20235;-56
2024/04/08 07:25:42;;;;;;;15.18;9.43;;;;;;;16.95;89.77;101065.34;5512139;26;20226;-56
2024/04/08 07:28:07;;;;;;;19.80;8.85;;;;;;;17.19;89.94;101059.28;5518046;25;20620;-57
2024/04/08 07:30:35;;;;;;;12.90;8.68;;;;;;;17.27;91.58;101059.63;5488799;26;20285;-56
2024/04/08 07:33:00;;;;;;;15.98;8.82;;;;;;;17.95;82.69;101065.84;5512757;26;20231;-57
2024/04/08 07:35:25;;;;;;;16.45;8.88;;;;;;;18.02;81.39;101067.13;5511625;26;20230;-57
2024/04/08 07:37:51;;;;;;;16.65;8.18;;;;;;;17.98;82.67;101065.63;5511064;26;20231;-58
2024/04/08 07:40:16;;;;;;;13.82;7.95;;;;;;;18.46;79.06;101063.06;5518520;26;20275;-57
2024/04/08 07:42:42;;;;;;;13.57;7.32;;;;;;;18.56;79.27;101078.66;5513001;25;20331;-56
2024/04/08 07:45:08;;;;;;;15.02;7.63;;;;;;;18.71;77.56;101075.72;5516085;26;20338;-58
2024/04/08 07:47:33;;;;;;;15.90;7.93;;;;;;;18.66;74.40;101079.72;5509625;26;20231;-57
2024/04/08 07:49:59;;;;;;;15.25;7.78;;;;;;;18.47;73.78;101080.22;5503084;26;20226;-57
2024/04/08 07:52:24;;;;;;;13.23;6.57;;;;;;;18.15;75.46;101086.97;5512177;26;20743;-58
2024/04/08 07:54:49;;;;;;;11.88;7.13;;;;;;;18.13;76.04;101085.31;5506441;26;20271;-58
2024/04/08 07:57:15;;;;;;;17.50;8.02;;;;;;;18.14;75.75;101087.94;5507239;26;20277;-57
2024/04/08 07:59:41;;;;;;;15.30;8.43;;;;;;;17.87;77.20;101068.16;5515531;26;20712;-58
2024/04/08 08:02:07;;;;;;;20.70;9.50;;;;;;;17.41;79.56;101078.53;5512673;25;20567;-58
2024/04/08 08:04:32;;;;;;;15.32;8.07;;;;;;;17.25;82.18;101072.41;5509099;26;20338;-57
2024/04/08 08:06:57;;;;;;;15.48;6.63;;;;;;;17.45;81.04;101071.03;5482736;26;20603;-57
2024/04/08 08:09:23;;;;;;;15.05;8.07;;;;;;;17.62;81.58;101067.16;5507646;26;20227;-57
2024/04/08 08:11:49;;;;;;;14.50;6.97;;;;;;;18.00;80.92;101063.66;5499399;26;20276;-58
2024/04/08 08:14:14;;;;;;;11.63;7.50;;;;;;;17.86;81.35;101029.38;5530690;25;20279;-58
2024/04/08 08:16:41;;;;;;;12.88;8.32;;;;;;;18.15;79.87;101040.03;5497520;26;20375;-57
2024/04/08 08:19:06;;;;;;;13.23;9.10;;;;;;;18.42;79.73;101031.69;5513179;25;20241;-57
2024/04/08 08:21:31;;;;;;;15.75;8.20;;;;;;;18.81;78.31;101035.16;5504648;26;20272;-57
2024/04/08 08:23:57;;;;;;;12.82;8.82;;;;;;;19.11;78.79;101031.19;5532332;25;20226;-57
2024/04/08 08:26:23;;;;;;;20.05;8.38;;;;;;;19.57;72.07;101026.72;5501446;25;20281;-57
2024/04/08 08:28:48;;;;;;;15.70;7.25;;;;;;;19.93;69.95;101023.00;5496473;26;20235;-58
2024/04/08 08:31:13;;;;;;;13.57;8.35;;;;;;;20.12;69.18;101022.41;5486366;26;20239;-58
2024/04/08 08:33:39;;;;;;;18.95;7.55;;;;;;;19.85;70.38;101013.75;5478639;26;20247;-58
2024/04/08 08:36:05;;;;;;;14.32;8.40;;;;;;;20.09;69.72;101008.16;5502381;26;20281;-58
2024/04/08 08:38:30;;;;;;;18.05;8.40;;;;;;;20.44;69.57;100991.72;5528889;25;20230;-58
2024/04/08 08:41:16;;;;;;;10.57;7.40;;;;;;;20.64;67.54;100987.34;5527667;25;20268;-58
2024/04/08 08:43:41;;;;;;;12.55;6.18;;;;;;;20.29;63.08;100991.09;5495977;25;20299;-58
2024/04/08 08:46:08;;;;;;;12.68;7.53;;;;;;;19.99;65.79;100958.25;5512280;26;20246;-58
2024/04/08 08:48:36;;;;;;;15.68;6.10;;;;;;;20.41;67.04;100997.41;5493885;26;20326;-58
2024/04/08 08:51:04;;;;;;;13.48;5.70;;;;;;;20.52;60.92;101006.53;5527758;25;20731;-58
2024/04/08 08:53:30;;;;;;;10.50;5.00;;;;;;;20.51;59.80;101005.66;5526416;25;20711;-57
2024/04/08 08:55:58;;;;;;;11.25;5.18;;;;;;;20.25;61.59;101007.81;5526966;25;20272;-58
2024/04/08 08:58:23;;;;;;;10.65;5.40;;;;;;;20.32;63.67;101014.47;5523267;26;20727;-58
2024/04/08 09:00:49;;;;;;;12.40;5.20;;;;;;;20.45;60.77;101014.34;5503291;26;20375;-57
2024/04/08 09:03:16;;;;;;;9.57;4.75;;;;;;;20.59;60.90;100995.00;5505685;26;20226;-59
2024/04/08 09:05:42;;;;;;;10.05;3.90;;;;;;;20.57;59.18;101002.44;5523973;25;20242;-58
2024/04/08 09:08:08;;;;;;;11.65;4.78;;;;;;;20.73;58.41;101001.19;5506145;25;20231;-57
2024/04/08 09:10:44;;;;;;;11.82;4.97;;;;;;;20.99;57.62;100999.00;5468514;26;20238;-58
2024/04/08 09:13:22;;;;;;;11.80;5.07;;;;;;;20.91;58.36;100998.78;5486303;26;20742;-57
2024/04/08 09:15:48;;;;;;;9.77;4.15;;;;;;;20.71;58.44;100998.59;5527688;25;20229;-57
2024/04/08 09:18:15;;;;;;;9.77;5.15;;;;;;;20.61;58.80;100981.25;5530311;25;20230;-58
2024/04/08 09:20:41;;;;;;;16.13;5.32;;;;;;;20.65;59.27;100991.78;5498815;25;20289;-58
2024/04/08 09:23:07;;;;;;;10.88;6.47;;;;;;;20.65;59.22;100980.91;5494715;26;20711;-57
2024/04/08 09:25:32;;;;;;;10.50;5.97;;;;;;;20.47;60.28;100990.56;5469341;26;20239;-57
2024/04/08 09:27:59;;;;;;;11.98;5.78;;;;;;;20.73;62.83;100991.16;5462071;26;20265;-58
2024/04/08 09:30:24;;;;;;;13.00;7.35;;;;;;;20.51;62.10;100991.22;5494917;26;20276;-58
2024/04/08 09:32:50;;;;;;;15.85;8.10;;;;;;;20.55;62.43;100998.09;5496600;26;20231;-58
2024/04/08 09:35:15;;;;;;;10.73;7.38;;;;;;;20.87;61.88;101000.88;5493589;26;20476;-57
2024/04/08 09:37:41;;;;;;;15.20;8.68;;;;;;;20.99;61.48;100991.69;5477485;26;20231;-58
2024/04/08 09:40:07;;;;;;;15.20;9.02;;;;;;;20.82;61.26;101000.41;5463349;26;20272;-58
2024/04/08 09:42:33;;;;;;;17.42;9.10;;;;;;;20.82;62.82;101003.16;5476516;26;20689;-58
2024/04/08 09:45:03;;;;;;;15.45;8.63;;;;;;;20.70;62.87;100988.69;5492915;26;20261;-58
2024/04/08 09:47:29;;;;;;;14.13;9.07;;;;;;;20.87;62.59;101000.03;5512594;26;20230;-58
2024/04/08 09:49:57;;;;;;;12.07;7.65;;;;;;;20.87;62.74;100992.72;5497225;25;20338;-59
2024/04/08 09:52:24;;;;;;;13.77;9.13;;;;;;;20.80;62.76;101002.41;5492794;26;20239;-57
2024/04/08 09:54:51;;;;;;;16.23;8.90;;;;;;;20.59;62.46;100986.84;5513086;26;20230;-58
2024/04/08 09:57:18;;;;;;;13.70;9.70;;;;;;;20.31;63.92;100994.56;5490694;26;20277;-59
2024/04/08 09:59:47;;;;;;;16.02;8.32;;;;;;;20.00;65.15;100981.72;5488657;26;20289;-58
2024/04/08 10:02:22;;;;;;;11.40;8.25;;;;;;;20.05;65.93;100987.66;5510713;25;20246;-57
2024/04/08 10:04:52;;;;;;;15.50;10.25;;;;;;;19.83;66.20;100992.13;5504022;26;20290;-58
2024/04/08 10:07:18;;;;;;;13.85;9.65;;;;;;;19.58;66.37;100974.97;5514070;25;20774;-57
2024/04/08 10:09:43;;;;;;;12.18;8.90;;;;;;;19.59;66.91;100994.88;5493243;26;20302;-57
2024/04/08 10:12:09;;;;;;;14.80;9.35;;;;;;;19.71;67.13;100988.47;5489101;26;20227;-58
2024/04/08 10:14:34;;;;;;;14.45;10.07;;;;;;;19.26;67.80;100988.38;5490313;26;20231;-58
2024/04/08 10:17:00;;;;;;;12.43;9.07;;;;;;;19.41;67.79;100970.88;5492416;25;20231;-58
2024/04/08 10:19:26;;;;;;;13.55;9.27;;;;;;;19.27;68.09;100967.53;5492688;26;20238;-58
2024/04/08 10:22:12;;;;;;;10.65;7.63;;;;;;;19.24;69.64;100974.06;5492558;26;20800;-58
2024/04/08 10:24:38;;;;;;;11.10;7.72;;;;;;;19.48;69.17;100975.81;5494710;26;20326;-58
2024/04/08 10:27:08;;;;;;;13.70;8.32;;;;;;;19.46;69.66;100973.22;5493351;26;20307;-57
2024/04/08 10:29:37;;;;;;;15.30;8.40;;;;;;;19.52;68.36;100972.75;5481711;26;20278;-58
2024/04/08 10:32:08;;;;;;;13.48;7.60;;;;;;;19.46;69.81;100962.34;5491974;26;20765;-58
2024/04/08 10:34:34;;;;;;;13.02;7.43;;;;;;;19.58;70.13;100955.09;5509791;25;20650;-59
2024/04/08 10:37:00;;;;;;;10.23;7.72;;;;;;;19.84;67.79;100941.31;5507077;25;20235;-58
2024/04/08 10:39:28;;;;;;;12.07;8.45;;;;;;;19.64;68.69;100951.03;5493710;26;20231;-58
2024/04/08 10:41:58;;;;;;;9.73;7.35;;;;;;;19.56;68.40;100947.06;5520588;25;20280;-59
2024/04/08 10:44:24;;;;;;;12.60;7.85;;;;;;;19.75;68.01;100942.88;5511459;25;20243;-59
2024/04/08 10:46:50;;;;;;;10.63;7.72;;;;;;;19.67;68.56;100950.78;5486261;26;20239;-58
2024/04/08 10:49:15;;;;;;;9.85;7.38;;;;;;;19.75;67.15;100941.06;5516138;25;20238;-59
2024/04/08 10:51:42;;;;;;;11.80;6.90;;;;;;;19.54;68.54;100945.44;5527830;25;20234;-58
2024/04/08 10:54:08;;;;;;;14.32;8.07;;;;;;;19.59;67.69;100938.69;5523342;26;20251;-58
2024/04/08 10:56:33;;;;;;;10.48;6.88;;;;;;;19.70;68.33;100928.81;5512209;26;20231;-57
2024/04/08 10:58:58;;;;;;;12.18;7.50;;;;;;;19.60;67.01;100928.66;5513783;26;20297;-57
2024/04/08 11:01:25;;;;;;;10.18;6.13;;;;;;;19.49;67.18;100923.22;5513283;26;20240;-58
2024/04/08 11:03:51;;;;;;;8.95;5.80;;;;;;;19.42;66.35;100910.13;5524245;25;20247;-58
2024/04/08 11:06:17;;;;;;;7.93;5.30;;;;;;;19.25;65.98;100925.03;5527880;25;20242;-58
2024/04/08 11:08:42;;;;;;;6.55;4.80;;;;;;;19.03;67.03;100930.41;5498655;26;20428;-58
2024/04/08 11:11:07;;;;;;;9.07;4.68;;;;;;;18.84;67.09;100934.50;5495343;26;20285;-58
2024/04/08 11:13:33;;;;;;;6.45;4.40;;;;;;;18.98;66.78;100935.34;5487486;26;20775;-58
2024/04/08 11:15:59;;;;;;;6.45;3.63;;;;;;;18.78;66.86;100936.84;5480080;26;20243;-57